Time;durP1;ratioP1;P1;durP2;ratioP2;P2;SDS_P1;SDS_P2;PMS_P1;PMS_P2;Temp;Humidity;BMP_temperature;BMP_pressure;BME280_temperature;BME280_humidity;BME280_pressure;Samples;Min_cycle;Max_cycle;Signal;HPM_P1;HPM_P2
2023/12/03 00:02:24;;;;;;;10.93;7.93;;;;;;;;;;5055735;28;20414;-70
2023/12/03 00:04:53;;;;;;;7.63;6.60;;;;;;;;;;5055527;28;20837;-70
2023/12/03 00:07:20;;;;;;;8.53;7.80;;;;;;;;;;5056572;28;20415;-71
2023/12/03 00:09:46;;;;;;;7.23;6.63;;;;;;;;;;5055795;28;20509;-70
2023/12/03 00:12:12;;;;;;;8.70;7.90;;;;;;;;;;5055655;28;20411;-70
2023/12/03 00:14:38;;;;;;;8.70;7.90;;;;;;;;;;5055798;28;20423;-70
2023/12/03 00:17:04;;;;;;;7.77;7.07;;;;;;;;;;5055805;28;20491;-70
2023/12/03 00:19:30;;;;;;;11.70;7.90;;;;;;;;;;5055771;28;20466;-70
2023/12/03 00:21:56;;;;;;;7.83;7.03;;;;;;;;;;5055480;28;20463;-71
2023/12/03 00:24:22;;;;;;;8.30;7.50;;;;;;;;;;5055333;28;20434;-70
2023/12/03 00:26:48;;;;;;;8.37;6.90;;;;;;;;;;5055519;28;20449;-70
2023/12/03 00:29:14;;;;;;;7.60;6.17;;;;;;;;;;5055406;28;20849;-70
2023/12/03 00:31:40;;;;;;;9.30;7.90;;;;;;;;;;5055511;28;20446;-71
2023/12/03 00:34:06;;;;;;;7.33;6.73;;;;;;;;;;5055246;28;20433;-70
2023/12/03 00:36:32;;;;;;;8.40;7.60;;;;;;;;;;5055459;28;20418;-70
2023/12/03 00:38:59;;;;;;;8.20;7.60;;;;;;;;;;5055177;28;20478;-70
2023/12/03 00:41:25;;;;;;;12.63;7.60;;;;;;;;;;5055360;28;20415;-70
2023/12/03 00:43:51;;;;;;;7.50;6.80;;;;;;;;;;5055091;28;20442;-70
2023/12/03 00:46:18;;;;;;;8.57;7.63;;;;;;;;;;5055044;28;20415;-70
2023/12/03 00:48:45;;;;;;;7.27;6.57;;;;;;;;;;5054978;28;20421;-70
2023/12/03 00:51:11;;;;;;;7.80;6.90;;;;;;;;;;5055013;28;20418;-70
2023/12/03 00:53:37;;;;;;;8.47;7.57;;;;;;;;;;5054831;28;20500;-70
2023/12/03 00:56:03;;;;;;;7.27;6.67;;;;;;;;;;5054988;28;20441;-70
2023/12/03 00:58:29;;;;;;;8.17;7.37;;;;;;;;;;5054930;28;20820;-70
2023/12/03 01:00:54;;;;;;;8.30;7.63;;;;;;;;;;5055047;28;20962;-70
2023/12/03 01:03:20;;;;;;;11.43;8.10;;;;;;;;;;5054476;28;20817;-70
2023/12/03 01:05:46;;;;;;;8.17;6.70;;;;;;;;;;5054863;28;20776;-70
2023/12/03 01:08:12;;;;;;;7.00;6.40;;;;;;;;;;5054659;28;20418;-70
2023/12/03 01:10:38;;;;;;;8.23;7.10;;;;;;;;;;5054874;28;20415;-71
2023/12/03 01:13:04;;;;;;;9.17;7.53;;;;;;;;;;5054690;28;20748;-70
2023/12/03 01:15:30;;;;;;;8.53;7.80;;;;;;;;;;5054783;28;20426;-71
2023/12/03 01:17:56;;;;;;;7.90;7.20;;;;;;;;;;5055074;28;20923;-70
2023/12/03 01:20:23;;;;;;;8.20;6.47;;;;;;;;;;5054891;28;20513;-70
2023/12/03 01:22:49;;;;;;;7.70;6.97;;;;;;;;;;5054262;28;20941;-70
2023/12/03 01:25:15;;;;;;;8.20;7.40;;;;;;;;;;5054161;28;20418;-70
2023/12/03 01:27:41;;;;;;;7.07;6.47;;;;;;;;;;5054795;28;20411;-70
2023/12/03 01:30:07;;;;;;;7.30;6.70;;;;;;;;;;5054372;28;20751;-70
2023/12/03 01:32:33;;;;;;;7.27;6.50;;;;;;;;;;5054782;28;20415;-70
2023/12/03 01:34:59;;;;;;;7.60;7.00;;;;;;;;;;5054188;28;20425;-70
2023/12/03 01:37:25;;;;;;;7.63;6.93;;;;;;;;;;5053675;28;20472;-70
2023/12/03 01:39:51;;;;;;;8.37;7.57;;;;;;;;;;5052589;28;20500;-71
2023/12/03 01:42:17;;;;;;;10.63;7.60;;;;;;;;;;5053958;28;20407;-70
2023/12/03 01:44:43;;;;;;;8.30;7.40;;;;;;;;;;5054313;28;20422;-70
2023/12/03 01:47:09;;;;;;;8.50;7.70;;;;;;;;;;5053806;28;20414;-70
2023/12/03 01:49:35;;;;;;;8.23;7.40;;;;;;;;;;5054107;28;20419;-70
2023/12/03 01:52:01;;;;;;;8.43;7.50;;;;;;;;;;5054059;28;20418;-70
2023/12/03 01:54:28;;;;;;;8.23;7.10;;;;;;;;;;5054161;28;20425;-69
2023/12/03 01:56:54;;;;;;;7.50;6.80;;;;;;;;;;5053708;28;20549;-70
2023/12/03 01:59:21;;;;;;;7.23;6.60;;;;;;;;;;5053609;28;20473;-70
2023/12/03 02:01:47;;;;;;;6.70;6.10;;;;;;;;;;5053797;28;20418;-70
2023/12/03 02:04:13;;;;;;;8.10;7.20;;;;;;;;;;5052786;28;20470;-70
2023/12/03 02:06:39;;;;;;;9.80;7.40;;;;;;;;;;5052839;28;20410;-70
2023/12/03 02:09:06;;;;;;;7.83;7.00;;;;;;;;;;5053029;28;20407;-70
2023/12/03 02:11:33;;;;;;;7.17;6.50;;;;;;;;;;5053512;28;20803;-70
2023/12/03 02:13:59;;;;;;;7.87;7.00;;;;;;;;;;5052579;28;20476;-70
2023/12/03 02:16:24;;;;;;;10.20;8.23;;;;;;;;;;5052641;28;20414;-70
2023/12/03 02:18:50;;;;;;;7.97;7.37;;;;;;;;;;5052990;28;20518;-70
2023/12/03 02:21:16;;;;;;;8.97;7.10;;;;;;;;;;5052765;28;20419;-70
2023/12/03 02:23:44;;;;;;;8.03;7.30;;;;;;;;;;5052696;28;20425;-70
2023/12/03 02:26:10;;;;;;;11.90;7.93;;;;;;;;;;5052680;28;20442;-70
2023/12/03 02:28:36;;;;;;;9.30;7.60;;;;;;;;;;5052399;28;20480;-70
2023/12/03 02:31:02;;;;;;;9.03;7.07;;;;;;;;;;5052347;28;20415;-70
2023/12/03 02:33:28;;;;;;;9.33;7.83;;;;;;;;;;5052513;28;20469;-70
2023/12/03 02:35:54;;;;;;;8.53;7.73;;;;;;;;;;5052655;28;20501;-70
2023/12/03 02:38:20;;;;;;;8.13;7.47;;;;;;;;;;5052223;28;20466;-71
2023/12/03 02:40:46;;;;;;;8.50;7.70;;;;;;;;;;5052289;28;20414;-70
2023/12/03 02:43:12;;;;;;;8.97;6.57;;;;;;;;;;5052094;28;20490;-70
2023/12/03 02:45:38;;;;;;;8.50;7.20;;;;;;;;;;5052211;28;20422;-71
2023/12/03 02:48:04;;;;;;;9.00;7.30;;;;;;;;;;5051338;28;20752;-70
2023/12/03 02:50:30;;;;;;;7.00;6.40;;;;;;;;;;5052045;28;20419;-70
2023/12/03 02:52:56;;;;;;;8.07;7.27;;;;;;;;;;5052025;28;20410;-70
2023/12/03 02:55:22;;;;;;;7.10;6.40;;;;;;;;;;5052398;28;20406;-71
2023/12/03 02:57:48;;;;;;;8.67;7.37;;;;;;;;;;5051979;28;20406;-70
2023/12/03 03:00:14;;;;;;;8.33;7.50;;;;;;;;;;5051902;28;20489;-70
2023/12/03 03:02:40;;;;;;;8.70;6.80;;;;;;;;;;5014986;28;1052972;-71
2023/12/03 03:05:06;;;;;;;7.77;6.20;;;;;;;;;;5053512;28;20426;-70
2023/12/03 03:07:32;;;;;;;7.97;7.17;;;;;;;;;;5052944;28;20406;-70
2023/12/03 03:09:58;;;;;;;8.00;7.10;;;;;;;;;;5052630;28;20429;-71
2023/12/03 03:12:24;;;;;;;8.13;7.33;;;;;;;;;;5053026;28;20414;-71
2023/12/03 03:14:50;;;;;;;9.23;7.70;;;;;;;;;;5052711;28;20410;-71
2023/12/03 03:17:16;;;;;;;7.20;6.50;;;;;;;;;;5053279;28;20801;-70
2023/12/03 03:19:43;;;;;;;10.33;7.80;;;;;;;;;;5052621;28;20516;-70
2023/12/03 03:22:11;;;;;;;8.33;6.87;;;;;;;;;;5051331;28;20464;-70
2023/12/03 03:24:37;;;;;;;8.33;7.50;;;;;;;;;;5052833;28;20422;-71
2023/12/03 03:27:03;;;;;;;7.47;6.87;;;;;;;;;;5052571;28;20765;-71
2023/12/03 03:29:29;;;;;;;9.57;6.23;;;;;;;;;;5053104;28;20492;-70
2023/12/03 03:31:55;;;;;;;7.20;6.50;;;;;;;;;;5052821;28;20418;-70
2023/12/03 03:34:21;;;;;;;8.10;7.40;;;;;;;;;;5052415;28;20420;-70
2023/12/03 03:36:47;;;;;;;8.33;7.17;;;;;;;;;;5052459;28;20415;-70
2023/12/03 03:39:13;;;;;;;7.93;7.23;;;;;;;;;;5052523;28;20501;-70
2023/12/03 03:41:39;;;;;;;8.43;7.67;;;;;;;;;;5052464;28;20420;-71
2023/12/03 03:44:05;;;;;;;7.43;6.73;;;;;;;;;;5052570;28;20505;-70
2023/12/03 03:46:31;;;;;;;7.53;6.67;;;;;;;;;;5052672;28;20779;-70
2023/12/03 03:48:57;;;;;;;7.40;6.57;;;;;;;;;;5052655;28;20879;-70
2023/12/03 03:51:24;;;;;;;7.57;6.33;;;;;;;;;;5052415;28;20410;-71
2023/12/03 03:53:50;;;;;;;8.73;7.80;;;;;;;;;;5052462;28;20458;-71
2023/12/03 03:56:17;;;;;;;6.53;5.93;;;;;;;;;;5052669;28;20524;-70
2023/12/03 03:58:43;;;;;;;7.23;6.53;;;;;;;;;;5052147;28;20861;-69
2023/12/03 04:01:09;;;;;;;6.80;6.20;;;;;;;;;;5055627;28;20429;-70
2023/12/03 04:03:35;;;;;;;7.63;6.30;;;;;;;;;;5055591;28;20511;-70
2023/12/03 04:06:01;;;;;;;8.50;6.17;;;;;;;;;;5056127;28;20505;-70
2023/12/03 04:08:27;;;;;;;8.37;7.57;;;;;;;;;;5056051;28;20429;-70
2023/12/03 04:10:53;;;;;;;10.43;6.83;;;;;;;;;;5056026;28;20774;-70
2023/12/03 04:13:19;;;;;;;7.27;6.43;;;;;;;;;;5054296;28;20487;-70
2023/12/03 04:15:45;;;;;;;7.10;6.40;;;;;;;;;;5055646;28;20414;-71
2023/12/03 04:18:11;;;;;;;9.43;7.23;;;;;;;;;;5055465;28;20414;-70
2023/12/03 04:20:37;;;;;;;7.10;6.40;;;;;;;;;;5055571;28;20422;-71
2023/12/03 04:23:03;;;;;;;15.07;9.47;;;;;;;;;;5055710;28;20423;-71
2023/12/03 04:25:30;;;;;;;13.20;7.90;;;;;;;;;;5055695;28;20430;-70
2023/12/03 04:27:56;;;;;;;10.00;6.60;;;;;;;;;;5055384;28;20441;-70
2023/12/03 04:30:22;;;;;;;9.80;6.30;;;;;;;;;;5055829;28;20422;-70
2023/12/03 04:32:48;;;;;;;6.73;6.13;;;;;;;;;;5055288;28;20450;-70
2023/12/03 04:35:14;;;;;;;9.27;6.07;;;;;;;;;;5053964;28;20426;-70
2023/12/03 04:37:40;;;;;;;5.67;5.17;;;;;;;;;;5055154;28;20437;-70
2023/12/03 04:40:06;;;;;;;5.67;5.27;;;;;;;;;;5055290;28;20470;-70
2023/12/03 04:42:32;;;;;;;5.37;4.80;;;;;;;;;;5055054;28;20418;-70
2023/12/03 04:44:58;;;;;;;6.87;4.70;;;;;;;;;;5055332;28;20782;-70
2023/12/03 04:47:24;;;;;;;4.07;3.83;;;;;;;;;;5055335;28;20941;-70
2023/12/03 04:49:50;;;;;;;4.80;4.50;;;;;;;;;;5054983;28;20468;-70
2023/12/03 04:52:16;;;;;;;6.47;5.97;;;;;;;;;;5054954;28;20422;-70
2023/12/03 04:54:42;;;;;;;5.10;4.70;;;;;;;;;;5054787;28;20426;-70
2023/12/03 04:57:08;;;;;;;5.53;5.10;;;;;;;;;;5054734;28;20541;-70
2023/12/03 04:59:34;;;;;;;4.30;4.00;;;;;;;;;;5054764;28;20561;-70
2023/12/03 05:02:00;;;;;;;4.50;4.20;;;;;;;;;;5054869;28;20422;-71
2023/12/03 05:04:27;;;;;;;4.80;4.40;;;;;;;;;;5054458;28;20485;-70
2023/12/03 05:06:53;;;;;;;4.97;4.63;;;;;;;;;;5055504;28;20419;-70
2023/12/03 05:09:18;;;;;;;4.67;4.37;;;;;;;;;;5054856;28;20904;-71
2023/12/03 05:11:45;;;;;;;4.43;4.03;;;;;;;;;;5054078;28;20509;-70
2023/12/03 05:14:11;;;;;;;4.50;4.20;;;;;;;;;;5054764;28;20442;-71
2023/12/03 05:16:37;;;;;;;3.50;3.30;;;;;;;;;;5055052;28;20893;-70
2023/12/03 05:19:03;;;;;;;4.47;4.27;;;;;;;;;;5054846;28;20462;-70
2023/12/03 05:21:29;;;;;;;5.20;4.73;;;;;;;;;;5054668;28;20419;-71
2023/12/03 05:23:56;;;;;;;8.30;5.37;;;;;;;;;;5054536;28;20901;-70
2023/12/03 05:26:22;;;;;;;5.63;5.17;;;;;;;;;;5054611;28;20469;-71
2023/12/03 05:28:48;;;;;;;5.00;4.70;;;;;;;;;;5054755;28;20902;-70
2023/12/03 05:31:14;;;;;;;4.90;4.60;;;;;;;;;;5054172;28;20781;-70
2023/12/03 05:33:41;;;;;;;4.57;4.27;;;;;;;;;;5053979;28;20793;-70
2023/12/03 05:36:08;;;;;;;5.33;4.83;;;;;;;;;;5054153;28;20426;-70
2023/12/03 05:38:33;;;;;;;3.73;3.57;;;;;;;;;;5053836;28;20470;-70
2023/12/03 05:40:59;;;;;;;4.93;4.63;;;;;;;;;;5054032;28;20422;-70
2023/12/03 05:43:25;;;;;;;4.17;3.97;;;;;;;;;;5054147;28;20419;-70
2023/12/03 05:45:51;;;;;;;4.53;4.23;;;;;;;;;;5053928;28;20506;-70
2023/12/03 05:48:17;;;;;;;6.00;5.40;;;;;;;;;;5053907;28;20422;-70
2023/12/03 05:50:43;;;;;;;7.00;6.40;;;;;;;;;;5054111;28;20411;-70
2023/12/03 05:53:09;;;;;;;7.00;6.33;;;;;;;;;;5053749;28;20832;-70
2023/12/03 05:55:35;;;;;;;5.67;5.17;;;;;;;;;;5053748;28;20413;-70
2023/12/03 05:58:01;;;;;;;4.93;4.53;;;;;;;;;;5053944;28;20505;-70
2023/12/03 06:00:29;;;;;;;4.37;4.17;;;;;;;;;;5053472;28;20478;-71
2023/12/03 06:02:55;;;;;;;4.60;4.07;;;;;;;;;;5053735;28;20462;-70
2023/12/03 06:05:21;;;;;;;11.77;8.13;;;;;;;;;;5053918;28;20411;-70
2023/12/03 06:07:47;;;;;;;12.13;7.20;;;;;;;;;;5053815;28;20871;-71
2023/12/03 06:10:13;;;;;;;6.10;5.70;;;;;;;;;;5053476;28;20406;-70
2023/12/03 06:12:39;;;;;;;8.00;6.50;;;;;;;;;;5053416;28;20402;-71
2023/12/03 06:15:05;;;;;;;11.50;8.30;;;;;;;;;;5053429;28;20924;-71
2023/12/03 06:17:31;;;;;;;6.70;6.03;;;;;;;;;;5053927;28;20423;-71
2023/12/03 06:19:57;;;;;;;4.87;4.47;;;;;;;;;;5053488;28;20498;-71
2023/12/03 06:22:22;;;;;;;5.00;4.63;;;;;;;;;;5053403;28;20501;-71
2023/12/03 06:24:48;;;;;;;5.90;5.37;;;;;;;;;;5053424;28;20476;-71
2023/12/03 06:27:15;;;;;;;6.00;4.97;;;;;;;;;;5053343;28;20406;-70
2023/12/03 06:29:41;;;;;;;5.40;4.63;;;;;;;;;;5053164;28;20437;-71
2023/12/03 06:32:07;;;;;;;5.67;5.10;;;;;;;;;;5053233;28;20890;-70
2023/12/03 06:34:33;;;;;;;5.97;5.47;;;;;;;;;;5053135;28;20426;-70
2023/12/03 06:36:59;;;;;;;5.90;5.50;;;;;;;;;;5053199;28;20493;-70
2023/12/03 06:39:26;;;;;;;4.40;4.10;;;;;;;;;;5053207;28;20541;-70
2023/12/03 06:41:52;;;;;;;5.80;5.20;;;;;;;;;;5052927;28;20460;-70
2023/12/03 06:44:17;;;;;;;3.80;3.60;;;;;;;;;;5053204;28;20430;-70
2023/12/03 06:46:43;;;;;;;5.43;4.77;;;;;;;;;;5053010;28;20465;-71
2023/12/03 06:49:11;;;;;;;6.10;5.10;;;;;;;;;;5053929;28;20421;-72
2023/12/03 06:51:37;;;;;;;6.83;6.13;;;;;;;;;;5052851;28;20807;-73
2023/12/03 06:54:03;;;;;;;5.57;5.10;;;;;;;;;;5053181;28;20442;-73
2023/12/03 06:56:29;;;;;;;5.53;5.13;;;;;;;;;;5052925;28;20515;-73
2023/12/03 06:58:55;;;;;;;4.53;4.20;;;;;;;;;;5052879;28;20932;-73
2023/12/03 07:01:21;;;;;;;4.87;4.63;;;;;;;;;;5053167;28;20419;-72
2023/12/03 07:03:47;;;;;;;4.17;4.00;;;;;;;;;;5052654;28;20836;-74
2023/12/03 07:06:13;;;;;;;5.23;4.80;;;;;;;;;;5052516;28;20472;-74
2023/12/03 07:08:40;;;;;;;4.70;4.40;;;;;;;;;;5052907;28;20415;-74
2023/12/03 07:11:07;;;;;;;4.13;3.87;;;;;;;;;;5053030;28;20468;-74
2023/12/03 07:13:33;;;;;;;4.90;4.60;;;;;;;;;;5052790;28;20442;-74
2023/12/03 07:15:59;;;;;;;4.70;4.43;;;;;;;;;;5052922;28;20945;-74
2023/12/03 07:18:25;;;;;;;4.30;4.10;;;;;;;;;;5052562;28;20929;-74
2023/12/03 07:20:51;;;;;;;5.77;4.30;;;;;;;;;;5052621;28;21004;-74
2023/12/03 07:23:17;;;;;;;5.30;4.80;;;;;;;;;;5052419;28;20446;-73
2023/12/03 07:25:43;;;;;;;4.47;4.17;;;;;;;;;;5052682;28;20422;-74
2023/12/03 07:28:09;;;;;;;4.10;3.80;;;;;;;;;;5052445;28;20779;-74
2023/12/03 07:30:34;;;;;;;4.67;4.40;;;;;;;;;;5052542;28;20918;-74
2023/12/03 07:33:00;;;;;;;6.00;5.53;;;;;;;;;;5052678;28;20421;-74
2023/12/03 07:35:26;;;;;;;5.87;5.30;;;;;;;;;;5054751;28;20418;-74
2023/12/03 07:37:53;;;;;;;11.03;7.50;;;;;;;;;;5056320;28;20501;-74
2023/12/03 07:40:19;;;;;;;16.93;7.30;;;;;;;;;;5056454;28;20469;-74
2023/12/03 07:42:45;;;;;;;12.53;7.87;;;;;;;;;;5056231;28;20894;-74
2023/12/03 07:45:11;;;;;;;9.97;7.70;;;;;;;;;;5056383;28;20433;-74
2023/12/03 07:47:37;;;;;;;9.90;8.00;;;;;;;;;;5056386;28;20425;-74
2023/12/03 07:50:03;;;;;;;9.83;7.13;;;;;;;;;;5056138;28;20513;-74
2023/12/03 07:52:29;;;;;;;9.90;7.23;;;;;;;;;;5056148;28;20512;-74
2023/12/03 07:54:55;;;;;;;7.47;6.70;;;;;;;;;;5056225;28;20418;-73
2023/12/03 07:57:21;;;;;;;10.20;7.20;;;;;;;;;;5056148;28;20918;-73
2023/12/03 07:59:47;;;;;;;11.10;8.33;;;;;;;;;;5055874;28;20548;-71
2023/12/03 08:02:13;;;;;;;13.17;8.40;;;;;;;;;;5056118;28;20936;-71
2023/12/03 08:04:39;;;;;;;17.53;8.57;;;;;;;;;;5055516;28;20997;-71
2023/12/03 08:07:05;;;;;;;16.27;9.03;;;;;;;;;;5055949;28;20414;-71
2023/12/03 08:09:31;;;;;;;19.63;9.33;;;;;;;;;;5055641;28;20509;-70
2023/12/03 08:11:57;;;;;;;12.10;8.90;;;;;;;;;;5055576;28;20433;-71
2023/12/03 08:14:23;;;;;;;14.50;9.37;;;;;;;;;;5055351;28;20906;-70
2023/12/03 08:16:49;;;;;;;6.50;6.00;;;;;;;;;;5056004;28;20771;-70
2023/12/03 08:22:20;;;;;;;5.30;4.80;;;;;;;;;;5055590;28;20536;-71
2023/12/03 08:24:45;;;;;;;6.00;5.50;;;;;;;;;;5055485;28;20410;-70
2023/12/03 08:27:12;;;;;;;7.17;6.00;;;;;;;;;;5055410;28;20442;-68
2023/12/03 08:29:38;;;;;;;8.10;6.20;;;;;;;;;;5055517;28;20460;-72
2023/12/03 08:32:04;;;;;;;24.77;15.57;;;;;;;;;;5055824;28;20422;-71
2023/12/03 08:34:30;;;;;;;14.50;9.60;;;;;;;;;;5055140;28;20776;-72
2023/12/03 08:36:56;;;;;;;7.33;6.30;;;;;;;;;;5055297;28;20906;-71
2023/12/03 08:39:22;;;;;;;7.57;5.27;;;;;;;;;;5055029;28;20480;-71
2023/12/03 08:41:48;;;;;;;6.00;5.60;;;;;;;;;;5055184;28;20421;-71
2023/12/03 08:44:14;;;;;;;5.93;5.47;;;;;;;;;;5055025;28;20431;-70
2023/12/03 08:46:40;;;;;;;4.23;3.93;;;;;;;;;;5055224;28;20509;-71
2023/12/03 08:49:06;;;;;;;7.07;4.87;;;;;;;;;;5055060;28;20422;-72
2023/12/03 08:51:32;;;;;;;4.40;4.20;;;;;;;;;;5055119;28;20414;-71
2023/12/03 08:53:58;;;;;;;4.70;4.50;;;;;;;;;;5054702;28;20426;-71
2023/12/03 08:56:24;;;;;;;10.73;8.63;;;;;;;;;;5054883;28;20464;-71
2023/12/03 08:58:49;;;;;;;5.60;5.20;;;;;;;;;;5054733;28;20474;-71
2023/12/03 09:01:16;;;;;;;5.07;4.80;;;;;;;;;;5055063;28;20430;-71
2023/12/03 09:03:43;;;;;;;35.23;18.83;;;;;;;;;;5054420;28;20489;-71
2023/12/03 09:06:09;;;;;;;15.03;9.10;;;;;;;;;;5054962;28;20419;-71
2023/12/03 09:08:35;;;;;;;11.60;7.60;;;;;;;;;;5054587;28;20415;-72
2023/12/03 09:11:01;;;;;;;11.80;7.40;;;;;;;;;;5054609;28;20442;-70
2023/12/03 09:13:27;;;;;;;12.10;9.63;;;;;;;;;;5054703;28;20425;-71
2023/12/03 09:15:56;;;;;;;7.00;6.30;;;;;;;;;;5054734;28;20450;-71
2023/12/03 09:18:22;;;;;;;31.13;15.70;;;;;;;;;;5054896;28;20460;-70
2023/12/03 09:20:48;;;;;;;13.40;7.50;;;;;;;;;;5054368;28;20422;-71
2023/12/03 09:23:14;;;;;;;6.73;6.13;;;;;;;;;;5054451;28;20407;-71
2023/12/03 09:25:40;;;;;;;6.37;5.67;;;;;;;;;;5054261;28;20433;-71
2023/12/03 09:28:06;;;;;;;5.37;4.97;;;;;;;;;;5054413;28;20414;-70
2023/12/03 09:30:32;;;;;;;6.03;5.50;;;;;;;;;;5054171;28;20433;-71
2023/12/03 09:32:58;;;;;;;6.10;5.60;;;;;;;;;;5054071;28;20749;-71
2023/12/03 09:35:25;;;;;;;6.40;5.80;;;;;;;;;;5054113;28;20429;-71
2023/12/03 09:37:51;;;;;;;9.50;5.93;;;;;;;;;;5054315;28;20410;-71
2023/12/03 09:40:17;;;;;;;6.13;5.60;;;;;;;;;;5054227;28;20478;-72
2023/12/03 09:42:46;;;;;;;5.20;4.87;;;;;;;;;;5054066;28;20407;-71
2023/12/03 09:45:14;;;;;;;5.53;5.13;;;;;;;;;;5054692;28;20441;-72
2023/12/03 09:47:43;;;;;;;7.13;6.40;;;;;;;;;;5053844;28;20416;-71
2023/12/03 09:50:09;;;;;;;6.30;5.47;;;;;;;;;;5053995;28;20902;-71
2023/12/03 09:52:35;;;;;;;5.67;5.17;;;;;;;;;;5053668;28;20425;-71
2023/12/03 09:55:02;;;;;;;7.17;6.53;;;;;;;;;;5053753;28;20471;-72
2023/12/03 09:57:31;;;;;;;5.40;5.00;;;;;;;;;;5051977;28;20458;-70
2023/12/03 09:59:58;;;;;;;5.13;4.83;;;;;;;;;;5053533;28;20563;-71
2023/12/03 10:02:26;;;;;;;5.00;4.80;;;;;;;;;;5053244;28;20930;-71
2023/12/03 10:04:52;;;;;;;5.20;4.90;;;;;;;;;;5053221;28;20442;-71
2023/12/03 10:07:20;;;;;;;6.10;5.70;;;;;;;;;;5052069;28;20430;-71
2023/12/03 10:09:48;;;;;;;6.77;5.20;;;;;;;;;;5053480;28;20898;-71
2023/12/03 10:12:14;;;;;;;5.47;5.10;;;;;;;;;;5052223;28;20506;-71
2023/12/03 10:14:42;;;;;;;5.20;4.90;;;;;;;;;;5053423;28;20462;-71
2023/12/03 10:17:08;;;;;;;5.87;5.47;;;;;;;;;;5053630;28;20418;-71
2023/12/03 10:19:34;;;;;;;6.47;6.00;;;;;;;;;;5053581;28;20534;-72
2023/12/03 10:22:00;;;;;;;5.90;5.40;;;;;;;;;;5053271;28;20945;-71
2023/12/03 10:24:26;;;;;;;7.07;5.73;;;;;;;;;;5053429;28;20419;-73
2023/12/03 10:26:53;;;;;;;7.20;6.50;;;;;;;;;;5053869;28;20505;-74
2023/12/03 10:29:19;;;;;;;13.10;9.80;;;;;;;;;;5053506;28;20560;-73
2023/12/03 10:31:49;;;;;;;6.97;6.37;;;;;;;;;;5053269;28;20437;-74
2023/12/03 10:34:16;;;;;;;5.50;5.10;;;;;;;;;;5053947;28;20402;-73
2023/12/03 10:36:45;;;;;;;7.60;6.27;;;;;;;;;;5053132;28;20886;-72
2023/12/03 10:39:17;;;;;;;7.30;5.10;;;;;;;;;;5053025;28;20473;-74
2023/12/03 10:41:47;;;;;;;7.10;6.43;;;;;;;;;;5052999;28;20798;-74
2023/12/03 10:44:17;;;;;;;14.40;9.30;;;;;;;;;;5052812;28;20472;-73
2023/12/03 10:46:44;;;;;;;14.20;7.07;;;;;;;;;;5053211;28;20497;-74
2023/12/03 10:49:12;;;;;;;8.70;5.60;;;;;;;;;;5052958;28;20424;-73
2023/12/03 10:51:40;;;;;;;5.20;4.80;;;;;;;;;;5052991;28;20410;-74
2023/12/03 10:54:06;;;;;;;5.80;5.40;;;;;;;;;;5052729;28;20975;-74
2023/12/03 10:56:33;;;;;;;4.87;4.53;;;;;;;;;;5053042;28;20414;-73
2023/12/03 10:59:02;;;;;;;6.43;5.33;;;;;;;;;;5053257;28;20466;-74
2023/12/03 11:01:30;;;;;;;10.70;7.07;;;;;;;;;;5052738;28;20438;-74
2023/12/03 11:04:02;;;;;;;5.47;5.03;;;;;;;;;;5051090;28;21001;-74
2023/12/03 11:06:32;;;;;;;28.53;14.83;;;;;;;;;;5051338;28;20472;-73
2023/12/03 11:08:58;;;;;;;7.03;6.43;;;;;;;;;;5053039;28;20462;-73
2023/12/03 11:11:25;;;;;;;4.50;4.27;;;;;;;;;;5056622;28;20179;-74
2023/12/03 11:13:52;;;;;;;13.13;10.40;;;;;;;;;;5056712;28;20925;-73
2023/12/03 11:16:19;;;;;;;7.43;6.60;;;;;;;;;;5057022;28;20470;-73
2023/12/03 11:19:06;;;;;;;117.57;69.37;;;;;;;;;;5056941;28;20500;-74
2023/12/03 11:21:51;;;;;;;9.53;8.60;;;;;;;;;;5056626;28;20729;-73
2023/12/03 11:24:17;;;;;;;5.70;5.30;;;;;;;;;;5056809;28;20421;-73
2023/12/03 11:26:43;;;;;;;4.57;4.27;;;;;;;;;;5056712;28;20402;-73
2023/12/03 11:29:09;;;;;;;4.70;4.40;;;;;;;;;;5056628;28;20407;-73
2023/12/03 11:31:35;;;;;;;10.97;8.03;;;;;;;;;;5056005;28;20421;-73
2023/12/03 11:34:03;;;;;;;4.93;4.50;;;;;;;;;;5056251;28;20509;-73
2023/12/03 11:36:48;;;;;;;6.13;5.63;;;;;;;;;;5056556;28;20414;-74
2023/12/03 11:39:15;;;;;;;7.30;6.60;;;;;;;;;;5056395;28;20477;-73
2023/12/03 11:41:45;;;;;;;5.47;4.97;;;;;;;;;;5056257;28;20906;-66
2023/12/03 11:44:18;;;;;;;5.00;4.70;;;;;;;;;;5056486;28;20432;-71
2023/12/03 11:46:48;;;;;;;11.23;10.20;;;;;;;;;;5056216;28;20509;-69
2023/12/03 11:49:14;;;;;;;9.13;6.07;;;;;;;;;;5056416;28;20430;-70
2023/12/03 11:51:40;;;;;;;6.00;5.47;;;;;;;;;;5056036;28;20902;-70
2023/12/03 11:54:07;;;;;;;12.57;9.10;;;;;;;;;;5056319;28;20430;-70
2023/12/03 11:56:35;;;;;;;21.63;15.90;;;;;;;;;;5056309;28;20463;-70
2023/12/03 12:02:05;;;;;;;5.67;5.13;;;;;;;;;;5055929;28;20401;-70
2023/12/03 12:04:31;;;;;;;8.23;7.50;;;;;;;;;;5055748;28;20462;-70
2023/12/03 12:06:57;;;;;;;8.50;6.93;;;;;;;;;;5056523;28;20913;-71
2023/12/03 12:09:24;;;;;;;6.90;6.40;;;;;;;;;;5056020;28;20430;-70
2023/12/03 12:11:50;;;;;;;8.27;7.30;;;;;;;;;;5055616;28;20509;-71
2023/12/03 12:14:19;;;;;;;6.37;5.87;;;;;;;;;;5055394;28;20778;-71
2023/12/03 12:16:46;;;;;;;9.60;7.37;;;;;;;;;;5054107;28;20477;-70
2023/12/03 12:19:12;;;;;;;5.97;5.40;;;;;;;;;;5054685;28;20969;-71
2023/12/03 12:21:54;;;;;;;5.80;5.40;;;;;;;;;;5055091;28;20423;-70
2023/12/03 12:24:20;;;;;;;5.23;4.97;;;;;;;;;;5055187;28;20434;-71
2023/12/03 12:26:46;;;;;;;5.47;5.00;;;;;;;;;;5055384;28;20772;-70
2023/12/03 12:29:13;;;;;;;5.90;5.40;;;;;;;;;;5055442;28;20562;-70
2023/12/03 12:31:39;;;;;;;6.03;5.53;;;;;;;;;;5055295;28;20421;-70
2023/12/03 12:34:05;;;;;;;165.00;63.07;;;;;;;;;;5055539;28;20501;-69
2023/12/03 12:36:31;;;;;;;7.27;6.57;;;;;;;;;;5055205;28;20415;-69
2023/12/03 12:38:57;;;;;;;5.93;5.53;;;;;;;;;;5055002;28;20520;-70
2023/12/03 12:41:23;;;;;;;6.03;5.63;;;;;;;;;;5055419;28;20417;-70
2023/12/03 12:43:55;;;;;;;5.73;5.27;;;;;;;;;;5055377;28;20919;-70
2023/12/03 12:46:22;;;;;;;7.60;5.90;;;;;;;;;;5056143;28;20789;-66
2023/12/03 12:51:52;;;;;;;7.90;7.30;;;;;;;;;;5053856;28;20482;-66
2023/12/03 12:54:18;;;;;;;6.00;5.60;;;;;;;;;;5054908;28;20440;-66
2023/12/03 12:56:44;;;;;;;6.13;5.63;;;;;;;;;;5055057;28;20859;-70
2023/12/03 13:02:21;;;;;;;8.20;5.80;;;;;;;;;;5054788;28;20398;-71
2023/12/03 13:04:47;;;;;;;7.77;6.90;;;;;;;;;;5054579;28;20469;-70
2023/12/03 13:07:13;;;;;;;6.30;5.80;;;;;;;;;;5054746;28;20930;-71
2023/12/03 13:09:39;;;;;;;5.80;5.40;;;;;;;;;;5054971;28;20423;-71
2023/12/03 13:12:05;;;;;;;5.63;5.30;;;;;;;;;;5054619;28;20418;-72
2023/12/03 13:14:33;;;;;;;5.23;4.77;;;;;;;;;;5054899;28;20418;-70
2023/12/03 13:17:00;;;;;;;7.53;6.83;;;;;;;;;;5054820;28;20429;-70
2023/12/03 13:22:29;;;;;;;6.83;6.13;;;;;;;;;;5054420;28;20445;-70
2023/12/03 13:24:55;;;;;;;6.03;5.70;;;;;;;;;;5054626;28;20410;-70
2023/12/03 13:27:21;;;;;;;6.33;5.80;;;;;;;;;;5054702;28;20418;-71
2023/12/03 13:29:49;;;;;;;9.77;8.77;;;;;;;;;;5055018;28;20510;-70
2023/12/03 13:32:15;;;;;;;35.67;13.20;;;;;;;;;;5053410;28;20410;-71
2023/12/03 13:34:40;;;;;;;18.00;11.17;;;;;;;;;;5054164;28;20501;-70
2023/12/03 13:37:06;;;;;;;16.70;8.90;;;;;;;;;;5054171;28;20415;-70
2023/12/03 13:39:32;;;;;;;11.07;7.30;;;;;;;;;;5054005;28;20462;-71
2023/12/03 13:41:58;;;;;;;11.03;6.53;;;;;;;;;;5054475;28;20422;-71
2023/12/03 13:44:25;;;;;;;6.37;5.97;;;;;;;;;;5054275;28;20407;-70
2023/12/03 13:46:59;;;;;;;7.57;6.60;;;;;;;;;;5053880;28;20402;-70
2023/12/03 13:49:25;;;;;;;5.80;5.40;;;;;;;;;;5053862;28;20782;-70
2023/12/03 13:51:51;;;;;;;12.50;7.77;;;;;;;;;;5054078;28;20555;-70
2023/12/03 13:54:17;;;;;;;7.47;6.77;;;;;;;;;;5053762;28;20410;-70
2023/12/03 13:56:43;;;;;;;7.20;6.37;;;;;;;;;;5054294;28;20468;-70
2023/12/03 13:59:10;;;;;;;8.50;7.70;;;;;;;;;;5053506;28;20477;-70
2023/12/03 14:01:36;;;;;;;11.10;9.60;;;;;;;;;;5053941;28;20418;-70
2023/12/03 14:04:02;;;;;;;6.83;6.33;;;;;;;;;;5053335;28;20497;-70
2023/12/03 14:06:29;;;;;;;6.03;5.43;;;;;;;;;;5053709;28;20411;-71
2023/12/03 14:08:55;;;;;;;13.30;5.80;;;;;;;;;;5053508;28;20521;-70
2023/12/03 14:11:20;;;;;;;6.27;5.70;;;;;;;;;;5053222;28;20487;-70
2023/12/03 14:13:47;;;;;;;6.27;5.70;;;;;;;;;;5053650;28;20410;-70
2023/12/03 14:16:15;;;;;;;7.60;6.90;;;;;;;;;;5053702;28;20418;-70
2023/12/03 14:18:43;;;;;;;6.90;6.20;;;;;;;;;;5053402;28;20519;-71
2023/12/03 14:21:09;;;;;;;7.07;6.37;;;;;;;;;;5053682;28;20462;-71
2023/12/03 14:23:35;;;;;;;6.57;6.00;;;;;;;;;;5053197;28;20442;-71
2023/12/03 14:26:01;;;;;;;6.20;5.67;;;;;;;;;;5052901;28;20426;-70
2023/12/03 14:28:27;;;;;;;6.90;6.30;;;;;;;;;;5052998;28;20406;-71
2023/12/03 14:30:53;;;;;;;5.93;5.47;;;;;;;;;;5053269;28;20937;-70
2023/12/03 14:33:19;;;;;;;5.43;4.93;;;;;;;;;;5053223;28;20500;-68
2023/12/03 14:35:45;;;;;;;6.83;5.57;;;;;;;;;;5053115;28;21036;-70
2023/12/03 14:38:11;;;;;;;5.40;5.00;;;;;;;;;;5053089;28;20458;-71
2023/12/03 14:40:37;;;;;;;15.93;10.37;;;;;;;;;;5052971;28;20582;-71
2023/12/03 14:43:03;;;;;;;6.30;5.70;;;;;;;;;;5052954;28;20564;-71
2023/12/03 14:45:29;;;;;;;5.27;4.90;;;;;;;;;;5051467;28;20461;-70
2023/12/03 14:47:56;;;;;;;6.93;6.43;;;;;;;;;;5053021;28;20810;-71
2023/12/03 14:50:22;;;;;;;5.23;4.93;;;;;;;;;;5052828;28;20463;-70
2023/12/03 14:52:48;;;;;;;7.93;6.60;;;;;;;;;;5052814;28;20514;-70